Friday, February 23, 2018, 7:15 AM EST
Back to Local

KELM, Elmira County Airport

Location: Horseheads, NY, United States Lat: 42.167
Local Time: 7:15 AM EST (12:15 GMT) Lon: -76.9
Time Zone: US/Eastern Elev: 954 ft

Show me the last for .
Show Decoded

2018-02-23 06:53 METAR KELM 231153Z VRB04KT 2SM BR OVC008 02/01 A3049 RMK AO2 CIG 007V012 SLP333
                 70039 T00170006 10022 20011 56012 $ =
2018-02-23 05:53 METAR KELM 231053Z 13003KT 10SM OVC009 02/01 A3049 RMK AO2 SLP333 T00220006 $ =
2018-02-23 05:26 METAR KELM 231026Z AUTO 09004KT 10SM OVC009 02/01 A3049 RMK AO2 T00220006 FZRANO
                 $ =
2018-02-23 04:53 METAR KELM 230953Z AUTO 00000KT 10SM BKN011 OVC021 02/00 A3050 RMK AO2 SLP339
                 T00220000 FZRANO $ =
2018-02-23 04:37 METAR KELM 230937Z AUTO 00000KT 10SM BKN011 OVC021 02/01 A3051 RMK AO2 T00220006
                 FZRANO $ =
2018-02-23 03:53 METAR KELM 230853Z AUTO 10006KT 10SM SCT009 BKN025 OVC042 02/01 A3052 RMK AO2
                 SLP345 T00170006 58016 FZRANO $ =
2018-02-23 03:30 METAR KELM 230830Z AUTO 07005KT 10SM SCT010 BKN026 OVC031 02/01 A3054 RMK AO2
                 T00170006 FZRANO $ =
2018-02-23 02:53 METAR KELM 230753Z AUTO 03003KT 10SM OVC008 02/01 A3055 RMK AO2 SLP356 T00170006
                 FZRANO $ =
2018-02-23 01:53 METAR KELM 230653Z AUTO 03005KT 10SM OVC008 02/01 A3057 RMK AO2 SLP361 T00170006
                 FZRANO $ =
2018-02-23 01:08 METAR KELM 230608Z AUTO 03005KT 10SM OVC009 02/01 A3057 RMK AO2 T00170006 FZRANO
                 $ =
2018-02-23 00:53 METAR KELM 230553Z AUTO 04004KT 10SM OVC010 01/01 A3057 RMK AO2 CIG 008V013
                 SLP363 T00110006 10017 20000 58014 FZRANO $ =
2018-02-23 00:07 METAR KELM 230507Z AUTO 36003KT 8SM OVC013 01/00 A3060 RMK AO2 T00110000 FZRANO
                 $ =
2018-02-22 23:53 METAR KELM 230453Z 00000KT 10SM OVC016 01/01 A3060 RMK AO2 SLP374 T00110006
                 400330000 $ =
2018-02-22 23:07 METAR KELM 230407Z 00000KT 9SM SCT013 OVC019 01/01 A3062 RMK AO2 T00110011 $ =
2018-02-22 22:53 METAR KELM 230353Z 10003KT 8SM BKN013 OVC020 01/01 A3062 RMK AO2 SLP379
                 T00110011 $ =
2018-02-22 22:36 METAR KELM 230336Z 09004KT 8SM OVC014 01/01 A3062 RMK AO2 T00110006 $ =
2018-02-22 22:02 METAR KELM 230302Z 09004KT 9SM OVC016 01/01 A3062 RMK AO2 T00110006 $ =
2018-02-22 21:53 METAR KELM 230253Z 09004KT 8SM OVC014 01/01 A3061 RMK AO2 SLP377 T00110006 58002
                 $ =
2018-02-22 21:36 METAR KELM 230236Z 08003KT 10SM OVC014 01/01 A3061 RMK AO2 T00110011 $ =
2018-02-22 20:53 METAR KELM 230153Z 09004KT 10SM OVC015 01/01 A3062 RMK AO2 SLP378 T00110006 $ =
2018-02-22 19:53 METAR KELM 230053Z 09004KT 10SM BKN016 OVC035 01/01 A3062 RMK AO2 SLP380
                 T00110006 $ =
2018-02-22 19:50 METAR KELM 230050Z 08004KT 10SM BKN016 OVC035 01/01 A3062 RMK AO2 $ =
2018-02-22 19:13 METAR KELM 230013Z 08004KT 10SM SCT015 BKN060 00/M01 A3060 RMK AO2 T00001006 $ =
2018-02-22 18:53 METAR KELM 222353Z 03003KT 6SM BR OVC016 02/01 A3059 RMK AO2 SLP370 60008
                 T00170006 10017 20006 55000 $ =
2018-02-22 17:53 METAR KELM 222253Z 10003KT 10SM OVC018 01/01 A3058 RMK AO2 SLP367 T00110006 =
2018-02-22 17:38 METAR KELM 222238Z 09003KT 10SM BKN016 OVC060 01/01 A3058 RMK AO2 T00110006 =
2018-02-22 17:09 METAR KELM 222209Z 07004KT 10SM SCT015 OVC060 02/00 A3058 RMK AO2 T00170000 =
2018-02-22 16:53 METAR KELM 222153Z 07005KT 10SM BKN014 BKN065 02/01 A3059 RMK AO2 SLP368
                 T00170006 =
2018-02-22 16:50 METAR KELM 222150Z 08005KT 10SM BKN014 BKN065 02/01 A3059 RMK AO2 =
2018-02-22 16:00 METAR KELM 222100Z 11007KT 10SM SCT009 OVC031 02/01 A3059 RMK AO2 T00170011 =
2018-02-22 15:53 METAR KELM 222053Z 11007KT 9SM SCT007 BKN029 OVC048 02/01 A3059 RMK AO2 SNE47
                 SLP369 P0001 60008 T00170006 50004 =
2018-02-22 15:48 METAR KELM 222048Z 11005KT 8SM SCT007 BKN029 OVC048 02/01 A3060 RMK AO2 SNE47
                 P0001 =
2018-02-22 15:40 METAR KELM 222040Z 07003KT 7SM -SN FEW007 BKN011 OVC042 02/01 A3060 RMK AO2
                 P0001 T00170011 =
2018-02-22 15:36 METAR KELM 222036Z 08004KT 7SM -SN SCT011 BKN041 OVC049 02/01 A3060 RMK AO2
                 P0001 T00170006 =
2018-02-22 15:11 METAR KELM 222011Z 06005KT 2SM -SN BR FEW017 OVC036 02/01 A3061 RMK AO2 P0001
                 T00170006 =
2018-02-22 14:53 METAR KELM 221953Z 03005KT 1 3/4SM -SN BR SCT017 BKN026 OVC036 02/01 A3062 RMK
                 AO2 SLP378 P0001 T00170006 =
2018-02-22 14:23 METAR KELM 221923Z 04005KT 1 1/4SM -SN BR SCT010 BKN015 OVC020 02/01 A3061 RMK
                 AO2 P0001 T00170011 =
2018-02-22 14:00 METAR KELM 221900Z 07005KT 1SM -SN BR FEW005 BKN009 OVC014 01/01 A3058 RMK AO2
                 P0000 T00110006 RVRNO =
2018-02-22 13:53 METAR KELM 221853Z 07006KT 3/4SM -SN BR FEW004 BKN011 OVC014 01/01 A3058 RMK AO2
                 SLP365 P0006 T00110006 RVRNO =
2018-02-22 13:46 METAR KELM 221846Z 07005KT 1/2SM SN FG FEW004 OVC013 01/00 A3057 RMK AO2 P0006
                 T00060000 RVRNO =
2018-02-22 12:53 METAR KELM 221753Z 00000KT 1/2SM SN FG VV010 01/01 A3059 RMK AO2 SLP370 P0009
                 60031 T00060006 10011 20000 58011 RVRNO =
2018-02-22 12:51 METAR KELM 221751Z 00000KT 1/2SM SN FG VV010 01/01 A3059 RMK AO2 P0009 RVRNO =
2018-02-22 12:10 METAR KELM 221710Z 00000KT 1/4SM SN FG VV009 01/01 A3061 RMK AO2 P0002 T00060006
                 RVRNO =
2018-02-22 12:06 METAR KELM 221706Z 00000KT 1/2SM SN FG VV010 01/01 A3060 RMK AO2 P0001 T00060006
                 RVRNO =
2018-02-22 11:53 METAR KELM 221653Z 08003KT 1/4SM SN FG VV010 01/00 A3061 RMK AO2 SLP375 P0008
                 T00060000 RVRNO =
2018-02-22 11:46 METAR KELM 221646Z 08003KT 1/4SM SN FG VV010 01/00 A3061 RMK AO2 P0006 T00060000
                 RVRNO =
2018-02-22 11:11 METAR KELM 221611Z 05004KT 1/2SM SN FG VV010 00/00 A3061 RMK AO2 P0003 T00000000
                 RVRNO =
2018-02-22 11:01 METAR KELM 221601Z 07004KT 1/4SM +SN FG VV009 00/M01 A3062 RMK AO2 P0001
                 T00001006 RVRNO =
2018-02-22 10:53 METAR KELM 221553Z 06004KT 1/4SM SN FG VV010 00/00 A3061 RMK AO2 SLP377 P0007
                 T00000000 RVRNO =
2018-02-22 10:46 METAR KELM 221546Z 04003KT 1/4SM SN FG VV011 01/00 A3062 RMK AO2 P0006 T00060000
                 RVRNO =
2018-02-22 10:36 METAR KELM 221536Z 05004KT 1/2SM SN FG FEW004 OVC012 00/M01 A3061 RMK AO2 P0005
                 T00001006 RVRNO =
2018-02-22 10:11 METAR KELM 221511Z 06003KT 1/4SM SN FG FEW003 OVC012 00/00 A3062 RMK AO2 P0003
                 T00000000 RVRNO =
2018-02-22 10:03 METAR KELM 221503Z 00000KT 1/2SM SN FG VV013 00/00 A3062 RMK AO2 P0001 T00000000
                 RVRNO =
2018-02-22 09:53 METAR KELM 221453Z 00000KT 1/2SM SN FG FEW005 OVC016 00/00 A3063 RMK AO2 SLP381
                 P0005 60007 T00000000 50000 RVRNO =
2018-02-22 09:37 METAR KELM 221437Z 00000KT 1/2SM SN FG FEW005 OVC014 00/00 A3062 RMK AO2 P0004
                 T00000000 RVRNO =
2018-02-22 09:14 METAR KELM 221414Z 06003KT 1/2SM SN FG VV013 00/M01 A3062 RMK AO2 P0002
                 T00001006 RVRNO =
2018-02-22 08:53 METAR KELM 221353Z 00000KT 3/4SM -SN BR OVC023 01/M01 A3064 RMK AO2 RAE05SNB05
                 SLP384 P0002 T00061011 RVRNO =
2018-02-22 08:47 METAR KELM 221347Z 00000KT 3/4SM -SN BR OVC027 01/M01 A3064 RMK AO2 RAE05SNB05
                 P0001 RVRNO =
2018-02-22 08:39 METAR KELM 221339Z 00000KT 1 3/4SM -SN BR BKN035 BKN055 OVC070 01/M01 A3065 RMK
                 AO2 RAE05SNB05 P0001 T00061011 =
2018-02-22 07:53 METAR KELM 221253Z 11003KT 10SM -RA SCT050 OVC075 01/M02 A3063 RMK AO2
                 RAE22B53UPB22E36 SLP380 P0000 T00061017 =

Support USWX by starting your Amazon purchase here.